Weather forecast for Shopky (Шопки Лагодів)

Ukraine, 275 m
N49.740, E24.519


Sounding

Red line — air temperature ˚C.
Blue line — thermal bubble temperature ˚C.
Green line — dew point temperature ˚C.
Wind speed is in meters per second.

Table forecast

GFS 0.25˚ model

temp. wind gust humid. clouds prec. press. hpbl
Wed21 00:00 -1 120.0 ese 6 13 81 75 0.0 1024 606
03:00 0 121.0 ese 6 12 80 84 0.0 1024 713
06:00 -0 109.0 ese 5 10 87 100 0.0 1024 623
09:00 -0 111.0 ese 5 10 87 100 0.0 1024 603
12:00 1 109.0 ese 6 9 83 100 0.0 1024 655
15:00 1 108.0 ese 6 9 81 100 0.1 1024 700
18:00 1 99.0 e 5 9 86 100 0.0 1025 555
21:00 -0 102.0 ese 5 9 86 98 0.1 1026 519
 
Thu22 00:00 -2 106.0 ese 4 9 90 85 0.0 1026 370
03:00 -3 113.0 ese 4 9 92 59 0.0 1027 318
06:00 -3 109.0 ese 3 7 93 68 0.0 1027 273
09:00 -3 116.0 ese 3 7 92 36 0.0 1027 263
12:00 -1 125.0 se 4 6 79 1 0.0 1027 356
15:00 1 127.0 se 3 5 72 0 0.0 1027 393
18:00 -2 132.0 se 2 3 86 0 0.0 1027 35
21:00 -3 144.0 se 2 2 88 0 0.0 1028 36
 
Fri23 00:00 -3 140.0 se 2 2 85 0 0.0 1028 23
03:00 -3 132.0 se 1 2 81 0 0.0 1029 21
06:00 -3 144.0 se 1 2 79 0 0.0 1029 21
09:00 -3 140.0 se 2 2 77 0 0.0 1029 21
12:00 1 149.0 sse 2 4 61 0 0.0 1030 250
15:00 3 151.0 sse 3 4 60 0 0.0 1029 254
18:00 -1 153.0 sse 3 4 75 0 0.0 1029 63
21:00 -2 161.0 sse 3 6 78 0 0.0 1028 140
 
Sat24 00:00 -1 164.0 sse 4 7 83 0 0.0 1027 147
03:00 -1 168.0 sse 3 6 89 0 0.0 1026 130
06:00 -1 169.0 s 3 3 92 0 0.0 1024 78
09:00 -1 162.0 sse 3 6 91 0 0.0 1023 97
12:00 3 166.0 sse 4 6 77 22 0.0 1021 194
15:00 4 165.0 sse 3 5 75 50 0.0 1019 192
18:00 2 164.0 sse 3 6 84 100 0.0 1018 127
21:00 2 169.0 s 4 8 90 100 0.9 1018 160
 
Sun25 00:00 2 178.0 s 3 6 91 99 0.3 1017 130
03:00 2 190.0 s 3 4 89 99 0.4 1016 91
06:00 3 204.0 ssw 3 4 93 99 0.9 1015 85
09:00 3 221.0 sw 3 6 95 100 1.4 1014 151
12:00 4 256.0 wsw 3 8 95 100 0.2 1015 330
15:00 5 289.0 wnw 4 8 88 100 0.3 1014 513
18:00 4 301.0 wnw 3 8 87 98 0.1 1014 374
21:00 2 317.0 nw 2 5 94 98 0.1 1015 128
 

0.009 s